createdAt,value
2023-05-13T00:00:03.452Z,9.93
2023-05-13T00:02:31.945Z,11.23
2023-05-13T00:04:59.360Z,11.35
2023-05-13T00:07:26.798Z,11.07
2023-05-13T00:09:54.109Z,10.73
2023-05-13T00:12:21.480Z,11.13
2023-05-13T00:14:48.857Z,12.25
2023-05-13T00:17:16.264Z,13.10
2023-05-13T00:19:43.575Z,13.40
2023-05-13T00:22:11.115Z,13.50
2023-05-13T00:24:38.429Z,13.55
2023-05-13T00:27:05.978Z,12.48
2023-05-13T00:29:33.339Z,18.63
2023-05-13T00:32:00.744Z,12.77
2023-05-13T00:34:28.140Z,16.58
2023-05-13T00:36:55.508Z,14.73
2023-05-13T00:39:22.996Z,14.65
2023-05-13T00:41:50.288Z,15.35
2023-05-13T00:44:17.610Z,17.25
2023-05-13T00:46:45.010Z,14.93
2023-05-13T00:49:12.329Z,17.20
2023-05-13T00:51:39.649Z,13.93
2023-05-13T00:54:06.996Z,18.35
2023-05-13T00:56:34.703Z,18.08
2023-05-13T00:59:02.036Z,14.02
2023-05-13T01:01:33.292Z,14.38
2023-05-13T01:04:18.720Z,18.45
2023-05-13T01:06:51.232Z,19.92
2023-05-13T01:09:30.742Z,16.98
2023-05-13T01:11:58.078Z,16.48
2023-05-13T01:14:32.884Z,20.60
2023-05-13T01:17:11.845Z,16.02
2023-05-13T01:19:43.095Z,21.35
2023-05-13T01:22:10.476Z,17.13
2023-05-13T01:24:38.219Z,19.92
2023-05-13T01:27:05.965Z,18.27
2023-05-13T01:29:33.529Z,19.63
2023-05-13T01:32:01.852Z,17.98
2023-05-13T01:34:29.254Z,16.50
2023-05-13T01:36:56.653Z,18.42
2023-05-13T01:39:24.456Z,19.88
2023-05-13T01:41:54.729Z,19.23
2023-05-13T01:44:22.041Z,18.27
2023-05-13T01:46:50.756Z,22.17
2023-05-13T01:49:18.947Z,18.58
2023-05-13T01:51:46.704Z,21.05
2023-05-13T01:54:14.019Z,20.63
2023-05-13T01:56:47.695Z,19.23
2023-05-13T01:59:15.432Z,20.02
2023-05-13T02:01:43.121Z,22.17
2023-05-13T02:04:10.473Z,22.42
2023-05-13T02:06:38.047Z,25.00
2023-05-13T02:09:05.470Z,21.92
2023-05-13T02:11:32.854Z,24.13
2023-05-13T02:14:00.316Z,23.15
2023-05-13T02:16:27.805Z,22.33
2023-05-13T02:18:55.209Z,24.60
2023-05-13T02:21:28.581Z,26.80
2023-05-13T02:23:56.107Z,24.88
2023-05-13T02:26:23.368Z,23.70
2023-05-13T02:28:50.675Z,27.52
2023-05-13T02:31:18.095Z,24.25
2023-05-13T02:33:45.447Z,33.65
2023-05-13T02:36:12.758Z,26.02
2023-05-13T02:38:40.075Z,29.27
2023-05-13T02:41:09.205Z,27.23
2023-05-13T02:43:36.774Z,26.08
2023-05-13T02:46:06.393Z,25.85
2023-05-13T02:48:34.609Z,28.77
2023-05-13T02:51:02.374Z,33.63
2023-05-13T02:53:29.826Z,27.75
2023-05-13T02:56:01.859Z,30.38
2023-05-13T02:58:29.247Z,31.17
2023-05-13T03:00:56.806Z,35.08
2023-05-13T03:03:25.351Z,27.90
2023-05-13T03:05:52.922Z,29.48
2023-05-13T03:08:20.218Z,32.13
2023-05-13T03:10:47.504Z,29.67
2023-05-13T03:13:14.832Z,28.50
2023-05-13T03:15:44.439Z,26.10
2023-05-13T03:18:12.614Z,31.70
2023-05-13T03:20:40.308Z,30.02
2023-05-13T03:23:08.884Z,28.63
2023-05-13T03:25:36.353Z,27.75
2023-05-13T03:28:04.118Z,30.77
2023-05-13T03:30:36.015Z,28.08
2023-05-13T03:33:07.354Z,27.13
2023-05-13T03:35:34.679Z,25.38
2023-05-13T03:38:02.436Z,27.55
2023-05-13T03:40:30.614Z,26.85
2023-05-13T03:42:57.918Z,24.40
2023-05-13T03:45:25.775Z,28.17
2023-05-13T03:47:57.637Z,26.80
2023-05-13T03:50:25.755Z,27.40
2023-05-13T03:52:53.443Z,27.48
2023-05-13T03:55:22.346Z,26.58
2023-05-13T03:57:49.817Z,29.33
2023-05-13T04:00:19.603Z,30.52
2023-05-13T04:02:48.961Z,28.65
2023-05-13T04:05:16.613Z,34.70
2023-05-13T04:07:43.980Z,27.15
2023-05-13T04:10:14.614Z,26.88
2023-05-13T04:12:42.807Z,29.80
2023-05-13T04:15:10.562Z,25.48
2023-05-13T04:17:37.861Z,32.20
2023-05-13T04:20:05.983Z,30.73
2023-05-13T04:22:34.783Z,30.77
2023-05-13T04:25:02.121Z,30.88
2023-05-13T04:27:29.402Z,30.20
2023-05-13T04:30:03.632Z,33.15
2023-05-13T04:32:33.469Z,32.15
2023-05-13T04:35:01.299Z,32.85
2023-05-13T04:37:30.613Z,35.05
2023-05-13T04:40:01.418Z,27.63
2023-05-13T04:42:28.807Z,30.48
2023-05-13T04:44:56.170Z,33.00
2023-05-13T04:47:23.545Z,30.67
2023-05-13T04:49:50.951Z,31.80
2023-05-13T04:52:19.555Z,32.55
2023-05-13T04:54:46.881Z,27.83
2023-05-13T04:57:14.225Z,33.13
2023-05-13T04:59:41.532Z,29.25
2023-05-13T05:02:10.639Z,32.22
2023-05-13T05:04:38.456Z,31.17
2023-05-13T05:07:11.528Z,30.63
2023-05-13T05:09:38.864Z,30.58
2023-05-13T05:12:06.727Z,30.00
2023-05-13T05:14:36.002Z,28.25
2023-05-13T05:17:03.487Z,27.25
2023-05-13T05:19:30.795Z,32.97
2023-05-13T05:21:58.364Z,28.08
2023-05-13T05:24:26.346Z,28.95
2023-05-13T05:26:53.719Z,30.90
2023-05-13T05:29:21.009Z,31.77
2023-05-13T05:31:48.591Z,29.63
2023-05-13T05:34:15.956Z,33.05
2023-05-13T05:36:44.124Z,32.58
2023-05-13T05:39:12.964Z,30.33
2023-05-13T05:41:40.324Z,32.30
2023-05-13T05:44:07.996Z,29.25
2023-05-13T05:46:35.501Z,29.52
2023-05-13T05:49:03.610Z,29.50
2023-05-13T05:51:33.345Z,29.08
2023-05-13T05:54:02.262Z,28.13
2023-05-13T05:56:30.061Z,29.05
2023-05-13T05:58:57.343Z,28.98
2023-05-13T06:01:25.087Z,25.65
2023-05-13T06:03:54.899Z,26.50
2023-05-13T06:06:22.853Z,25.92
2023-05-13T06:08:50.300Z,23.75
2023-05-13T06:11:17.724Z,24.15
2023-05-13T06:13:45.104Z,22.10
2023-05-13T06:16:12.529Z,22.80
2023-05-13T06:18:40.341Z,21.92
2023-05-13T06:21:07.721Z,24.15
2023-05-13T06:23:35.057Z,24.30
2023-05-13T06:26:02.341Z,21.30
2023-05-13T06:28:29.649Z,24.35
2023-05-13T06:30:57.460Z,23.52
2023-05-13T06:33:25.005Z,22.48
2023-05-13T06:35:53.376Z,27.80
2023-05-13T06:38:22.471Z,22.20
2023-05-13T06:40:52.916Z,22.08
2023-05-13T06:43:26.305Z,22.15
2023-05-13T06:45:57.785Z,31.42
2023-05-13T06:48:26.975Z,22.33
2023-05-13T06:50:54.308Z,22.60
2023-05-13T06:53:21.922Z,19.38
2023-05-13T06:55:49.518Z,22.05
2023-05-13T06:58:16.881Z,24.17
2023-05-13T07:00:46.613Z,20.27
2023-05-13T07:03:14.000Z,23.15
2023-05-13T07:05:41.362Z,20.77
2023-05-13T07:08:08.830Z,21.67
2023-05-13T07:10:36.894Z,23.75
2023-05-13T07:13:04.316Z,22.25
2023-05-13T07:15:31.648Z,28.33
2023-05-13T07:17:58.993Z,25.10
2023-05-13T07:20:27.090Z,26.67
2023-05-13T07:22:54.417Z,29.13
2023-05-13T07:25:21.759Z,25.40
2023-05-13T07:27:49.046Z,29.92
2023-05-13T07:30:16.292Z,24.65
2023-05-13T07:32:43.709Z,24.60
2023-05-13T07:35:11.098Z,27.48
2023-05-13T07:37:38.448Z,23.20
2023-05-13T07:40:06.638Z,25.20
2023-05-13T07:42:33.945Z,26.45
2023-05-13T07:45:01.257Z,27.02
2023-05-13T07:47:29.134Z,26.83
2023-05-13T07:49:56.770Z,30.00
2023-05-13T07:52:24.073Z,26.88
2023-05-13T07:54:51.417Z,26.80
2023-05-13T07:57:18.733Z,27.48
2023-05-13T07:59:46.091Z,24.52
2023-05-13T08:02:13.407Z,25.33
2023-05-13T08:04:40.837Z,26.13
2023-05-13T08:07:09.634Z,31.35
2023-05-13T08:09:36.986Z,28.83
2023-05-13T08:12:04.473Z,28.75
2023-05-13T08:14:31.790Z,27.40
2023-05-13T08:16:59.172Z,22.50
2023-05-13T08:19:26.495Z,23.35
2023-05-13T08:21:53.860Z,19.33
2023-05-13T08:24:21.151Z,21.05
2023-05-13T08:26:48.445Z,18.00
2023-05-13T08:29:15.854Z,18.75
2023-05-13T08:31:43.278Z,22.00
2023-05-13T08:34:11.019Z,29.42
2023-05-13T08:36:38.408Z,26.08
2023-05-13T08:39:05.752Z,25.40
2023-05-13T08:41:34.086Z,27.42
2023-05-13T08:44:01.639Z,26.98
2023-05-13T08:46:29.096Z,27.63
2023-05-13T08:48:56.596Z,26.85
2023-05-13T08:51:24.019Z,26.92
2023-05-13T08:53:52.135Z,22.73
2023-05-13T08:56:19.560Z,22.60
2023-05-13T08:58:46.871Z,25.55
2023-05-13T09:01:14.317Z,27.30
2023-05-13T09:03:55.603Z,24.60
2023-05-13T09:06:23.249Z,24.02
2023-05-13T09:08:50.578Z,23.38
2023-05-13T09:11:17.915Z,22.58
2023-05-13T09:13:45.457Z,22.83
2023-05-13T09:16:15.609Z,23.77
2023-05-13T09:18:43.319Z,25.75
2023-05-13T09:21:37.174Z,25.48
2023-05-13T09:24:18.200Z,28.10
2023-05-13T09:26:46.010Z,27.63
2023-05-13T09:29:17.601Z,23.42
2023-05-13T09:31:50.208Z,26.55
2023-05-13T09:34:34.335Z,30.15
2023-05-13T09:37:03.360Z,27.17
2023-05-13T09:39:43.891Z,25.90
2023-05-13T09:42:17.755Z,25.58
2023-05-13T09:44:48.916Z,23.00
2023-05-13T09:47:16.851Z,25.17
2023-05-13T09:49:45.290Z,24.98
2023-05-13T09:52:13.671Z,24.05
2023-05-13T09:54:40.973Z,22.10
2023-05-13T09:57:08.290Z,21.88
2023-05-13T09:59:35.684Z,22.48
2023-05-13T10:02:05.044Z,19.48
2023-05-13T10:04:32.681Z,19.58
2023-05-13T10:07:01.231Z,23.85
2023-05-13T10:09:29.203Z,20.30
2023-05-13T10:11:56.636Z,18.50
2023-05-13T10:14:23.927Z,17.23
2023-05-13T10:16:51.682Z,17.75
2023-05-13T10:19:19.125Z,16.10
2023-05-13T10:21:46.560Z,16.33
2023-05-13T10:24:14.281Z,52.05
2023-05-13T10:26:43.651Z,14.30
2023-05-13T10:29:11.495Z,16.70
2023-05-13T10:31:39.391Z,15.95
2023-05-13T10:34:06.709Z,14.73
2023-05-13T10:36:49.059Z,16.80
2023-05-13T10:39:44.246Z,16.80
2023-05-13T10:42:40.994Z,16.25
2023-05-13T10:45:08.983Z,14.48
2023-05-13T10:47:36.947Z,14.98
2023-05-13T10:50:24.146Z,17.02
2023-05-13T10:52:51.659Z,14.45
2023-05-13T10:55:20.347Z,15.93
2023-05-13T10:58:11.104Z,13.35
2023-05-13T11:00:42.854Z,13.70
2023-05-13T11:03:14.974Z,14.68
2023-05-13T11:05:49.151Z,13.52
2023-05-13T11:08:55.988Z,12.07
2023-05-13T11:11:30.250Z,12.07
2023-05-13T11:14:19.423Z,12.55
2023-05-13T11:17:10.369Z,15.07
2023-05-13T11:19:38.989Z,11.38
2023-05-13T11:22:12.868Z,10.43
2023-05-13T11:24:40.531Z,10.82
2023-05-13T11:27:16.316Z,9.80
2023-05-13T11:29:53.771Z,9.50
2023-05-13T11:32:56.497Z,8.98
2023-05-13T11:35:31.730Z,10.70
2023-05-13T11:38:00.712Z,9.77
2023-05-13T11:40:31.867Z,13.10
2023-05-13T11:42:59.506Z,12.82
2023-05-13T11:45:27.252Z,8.75
2023-05-13T11:47:54.924Z,8.15
2023-05-13T11:50:32.440Z,9.38
2023-05-13T11:53:00.723Z,9.48
2023-05-13T11:55:32.340Z,9.32
2023-05-13T11:57:59.873Z,8.57
2023-05-13T12:00:33.969Z,8.77
2023-05-13T12:03:03.312Z,6.35
2023-05-13T12:05:30.821Z,10.50
2023-05-13T12:07:58.615Z,7.55
2023-05-13T12:10:26.382Z,5.65
2023-05-13T12:12:53.736Z,11.38
2023-05-13T12:15:21.603Z,6.65
2023-05-13T12:17:49.441Z,6.28
2023-05-13T12:20:18.155Z,5.90
2023-05-13T12:22:46.841Z,6.05
2023-05-13T12:25:33.406Z,7.03
2023-05-13T12:28:07.052Z,20.90
2023-05-13T12:30:35.363Z,9.15
2023-05-13T12:33:04.619Z,6.85
2023-05-13T12:35:32.862Z,6.95
2023-05-13T12:38:06.653Z,6.43
2023-05-13T12:40:34.159Z,5.25
2023-05-13T12:43:02.077Z,8.27
2023-05-13T12:45:30.577Z,5.97
2023-05-13T12:47:58.097Z,5.07
2023-05-13T12:50:25.925Z,6.90
2023-05-13T12:52:53.680Z,5.00
2023-05-13T12:55:21.426Z,4.72
2023-05-13T12:58:00.678Z,6.47
2023-05-13T13:00:28.105Z,5.03
2023-05-13T13:02:55.772Z,6.45
2023-05-13T13:05:24.073Z,6.47
2023-05-13T13:07:51.712Z,6.10
2023-05-13T13:10:19.385Z,6.45
2023-05-13T13:12:46.935Z,6.90
2023-05-13T13:15:14.280Z,11.02
2023-05-13T13:17:41.655Z,5.05
2023-05-13T13:20:09.343Z,7.07
2023-05-13T13:22:37.353Z,7.35
2023-05-13T13:25:05.959Z,6.20
2023-05-13T13:27:34.227Z,7.28
2023-05-13T13:30:01.965Z,7.50
2023-05-13T13:32:29.381Z,7.25
2023-05-13T13:34:58.328Z,7.03
2023-05-13T13:37:25.834Z,7.22
2023-05-13T13:39:53.172Z,6.53
2023-05-13T13:42:21.392Z,7.95
2023-05-13T13:44:49.550Z,6.10
2023-05-13T13:47:16.895Z,7.53
2023-05-13T13:49:44.233Z,7.40
2023-05-13T13:52:11.786Z,6.00
2023-05-13T13:54:39.184Z,6.18
2023-05-13T13:57:06.488Z,6.95
2023-05-13T13:59:33.849Z,6.53
2023-05-13T14:02:01.320Z,7.53
2023-05-13T14:04:30.267Z,7.03
2023-05-13T14:06:57.845Z,5.78
2023-05-13T14:09:25.312Z,6.60
2023-05-13T14:11:53.956Z,7.07
2023-05-13T14:14:21.295Z,7.53
2023-05-13T14:16:48.869Z,5.13
2023-05-13T14:19:18.093Z,7.20
2023-05-13T14:21:48.620Z,6.40
2023-05-13T14:24:16.025Z,5.25
2023-05-13T14:26:43.311Z,7.38
2023-05-13T14:29:10.846Z,4.38
2023-05-13T14:31:38.398Z,5.28
2023-05-13T14:34:07.949Z,5.78
2023-05-13T14:36:36.103Z,6.35
2023-05-13T14:39:03.485Z,5.85
2023-05-13T14:41:31.050Z,4.38
2023-05-13T14:43:58.391Z,4.50
2023-05-13T14:46:25.731Z,3.80
2023-05-13T14:48:53.182Z,5.35
2023-05-13T14:51:21.085Z,4.25
2023-05-13T14:53:48.428Z,7.07
2023-05-13T14:56:15.757Z,4.78
2023-05-13T14:58:43.092Z,5.47
2023-05-13T15:01:10.444Z,5.60
2023-05-13T15:03:38.205Z,7.20
2023-05-13T15:06:06.334Z,7.53
2023-05-13T15:08:33.642Z,5.70
2023-05-13T15:11:01.044Z,5.25
2023-05-13T15:13:29.770Z,5.22
2023-05-13T15:15:57.113Z,8.02
2023-05-13T15:18:24.480Z,3.95
2023-05-13T15:20:51.882Z,5.15
2023-05-13T15:23:19.275Z,5.68
2023-05-13T15:25:47.030Z,4.97
2023-05-13T15:28:14.670Z,4.80
2023-05-13T15:30:42.623Z,3.70
2023-05-13T15:33:10.062Z,5.55
2023-05-13T15:35:37.490Z,6.32
2023-05-13T15:38:04.958Z,4.80
2023-05-13T15:40:32.259Z,5.20
2023-05-13T15:42:59.602Z,5.30
2023-05-13T15:45:27.003Z,6.40
2023-05-13T15:47:54.461Z,6.75
2023-05-13T15:50:22.166Z,4.30
2023-05-13T15:52:49.738Z,5.55
2023-05-13T15:55:17.164Z,7.93
2023-05-13T15:57:44.615Z,4.43
2023-05-13T16:00:12.625Z,8.80
2023-05-13T16:02:41.370Z,5.05
2023-05-13T16:05:08.921Z,5.43
2023-05-13T16:07:36.298Z,5.10
2023-05-13T16:10:04.336Z,6.32
2023-05-13T16:12:31.693Z,8.30
2023-05-13T16:14:59.097Z,6.82
2023-05-13T16:17:26.471Z,5.22
2023-05-13T16:19:54.049Z,4.47
2023-05-13T16:22:32.891Z,5.50
2023-05-13T16:25:04.767Z,4.25
2023-05-13T16:27:32.681Z,3.40
2023-05-13T16:30:00.739Z,4.28
2023-05-13T16:32:28.195Z,6.25
2023-05-13T16:34:55.828Z,4.88
2023-05-13T16:37:23.259Z,7.28
2023-05-13T16:39:50.571Z,6.63
2023-05-13T16:42:19.615Z,5.47
2023-05-13T16:44:47.364Z,6.20
2023-05-13T16:47:14.711Z,4.60
2023-05-13T16:49:43.528Z,6.82
2023-05-13T16:52:10.834Z,4.30
2023-05-13T16:54:38.268Z,5.35
2023-05-13T16:57:05.943Z,3.47
2023-05-13T16:59:33.413Z,6.60
2023-05-13T17:02:00.805Z,7.65
2023-05-13T17:04:28.512Z,6.03
2023-05-13T17:06:58.353Z,7.35
2023-05-13T17:09:26.666Z,6.03
2023-05-13T17:11:54.862Z,6.05
2023-05-13T17:14:22.407Z,5.88
2023-05-13T17:16:49.781Z,5.43
2023-05-13T17:19:17.444Z,5.45
2023-05-13T17:21:44.872Z,4.78
2023-05-13T17:24:12.211Z,8.00
2023-05-13T17:26:39.610Z,5.38
2023-05-13T17:29:07.246Z,4.55
2023-05-13T17:31:34.614Z,6.78
2023-05-13T17:34:02.147Z,4.35
2023-05-13T17:36:29.500Z,5.45
2023-05-13T17:38:56.961Z,5.72
2023-05-13T17:41:24.352Z,3.50
2023-05-13T17:43:51.674Z,5.60
2023-05-13T17:46:19.015Z,11.75
2023-05-13T17:48:46.413Z,8.27
2023-05-13T17:51:13.820Z,5.95
2023-05-13T17:53:41.210Z,7.63
2023-05-13T17:56:10.365Z,6.10
2023-05-13T17:58:37.973Z,6.40
2023-05-13T18:01:06.024Z,4.65
2023-05-13T18:03:34.465Z,6.57
2023-05-13T18:06:01.929Z,4.00
2023-05-13T18:08:29.392Z,4.35
2023-05-13T18:10:56.814Z,4.45
2023-05-13T18:13:24.128Z,6.72
2023-05-13T18:15:51.482Z,3.75
2023-05-13T18:18:18.876Z,3.53
2023-05-13T18:20:46.232Z,5.32
2023-05-13T18:23:13.606Z,3.15
2023-05-13T18:25:54.666Z,4.68
2023-05-13T18:28:22.770Z,4.50
2023-05-13T18:30:50.335Z,4.30
2023-05-13T18:33:19.861Z,4.53
2023-05-13T18:35:47.463Z,3.42
2023-05-13T18:38:14.857Z,4.60
2023-05-13T18:40:42.214Z,3.80
2023-05-13T18:43:09.594Z,3.65
2023-05-13T18:45:37.028Z,5.90
2023-05-13T18:48:04.631Z,6.60
2023-05-13T18:50:32.069Z,3.65
2023-05-13T18:52:59.424Z,4.10
2023-05-13T18:55:26.917Z,5.88
2023-05-13T18:57:54.293Z,3.42
2023-05-13T19:00:21.925Z,3.38
2023-05-13T19:02:49.607Z,5.03
2023-05-13T19:05:19.118Z,4.45
2023-05-13T19:07:47.798Z,3.92
2023-05-13T19:10:15.857Z,4.20
2023-05-13T19:12:44.152Z,3.47
2023-05-13T19:15:12.119Z,7.20
2023-05-13T19:17:41.095Z,5.47
2023-05-13T19:20:09.054Z,5.97
2023-05-13T19:22:36.538Z,8.00
2023-05-13T19:25:05.225Z,8.45
2023-05-13T19:27:32.527Z,9.07
2023-05-13T19:30:01.384Z,6.20
2023-05-13T19:32:29.039Z,6.05
2023-05-13T19:34:56.389Z,11.27
2023-05-13T19:37:24.380Z,5.25
2023-05-13T19:39:51.821Z,6.60
2023-05-13T19:42:19.149Z,5.53
2023-05-13T19:44:46.506Z,10.60
2023-05-13T19:47:30.645Z,9.00
2023-05-13T19:49:58.117Z,5.72
2023-05-13T19:52:25.525Z,4.30
2023-05-13T19:54:52.940Z,5.45
2023-05-13T19:57:35.361Z,2.10
2023-05-13T20:00:09.248Z,4.63
2023-05-13T20:02:37.094Z,3.05
2023-05-13T20:05:05.726Z,3.10
2023-05-13T20:07:33.156Z,3.13
2023-05-13T20:10:01.222Z,5.68
2023-05-13T20:12:28.628Z,3.13
2023-05-13T20:14:57.989Z,1.85
2023-05-13T20:17:25.763Z,3.78
2023-05-13T20:19:54.580Z,3.33
2023-05-13T20:22:22.117Z,5.47
2023-05-13T20:24:50.591Z,5.50
2023-05-13T20:27:18.099Z,2.65
2023-05-13T20:29:46.996Z,3.03
2023-05-13T20:32:14.981Z,2.97
2023-05-13T20:34:42.330Z,3.55
2023-05-13T20:37:09.678Z,2.53
2023-05-13T20:39:37.046Z,5.88
2023-05-13T20:42:04.517Z,6.07
2023-05-13T20:44:31.846Z,3.22
2023-05-13T20:46:59.171Z,3.97
2023-05-13T20:49:26.888Z,3.53
2023-05-13T20:51:54.292Z,6.72
2023-05-13T20:54:21.669Z,3.90
2023-05-13T20:56:49.095Z,3.70
2023-05-13T20:59:16.502Z,7.63
2023-05-13T21:01:47.481Z,12.20
2023-05-13T21:04:15.664Z,6.32
2023-05-13T21:06:43.644Z,8.23
2023-05-13T21:09:10.945Z,13.88
2023-05-13T21:11:38.362Z,9.52
2023-05-13T21:14:05.751Z,7.85
2023-05-13T21:16:34.651Z,6.97
2023-05-13T21:19:02.116Z,5.95
2023-05-13T21:21:29.573Z,5.97
2023-05-13T21:23:56.838Z,6.82
2023-05-13T21:26:24.991Z,7.40
2023-05-13T21:28:52.287Z,9.00
2023-05-13T21:31:19.646Z,8.18
2023-05-13T21:33:51.625Z,8.68
2023-05-13T21:36:18.977Z,10.27
2023-05-13T21:38:46.280Z,9.68
2023-05-13T21:41:13.644Z,9.25
2023-05-13T21:43:40.989Z,9.77
2023-05-13T21:46:08.284Z,11.10
2023-05-13T21:48:35.621Z,13.13
2023-05-13T21:51:02.990Z,19.23
2023-05-13T21:53:30.242Z,17.08
2023-05-13T21:55:58.998Z,20.30
2023-05-13T21:58:26.315Z,15.90
2023-05-13T22:00:53.825Z,16.88
2023-05-13T22:03:21.201Z,19.95
2023-05-13T22:05:48.563Z,16.92
2023-05-13T22:08:15.948Z,18.90
2023-05-13T22:10:43.592Z,17.42
2023-05-13T22:13:11.103Z,19.15
2023-05-13T22:15:38.540Z,18.75
2023-05-13T22:18:06.126Z,17.20
2023-05-13T22:20:33.553Z,19.38
2023-05-13T22:23:00.870Z,20.77
2023-05-13T22:25:28.159Z,27.17
2023-05-13T22:27:55.862Z,19.38
2023-05-13T22:30:23.354Z,23.40
2023-05-13T22:32:51.558Z,20.85
2023-05-13T22:35:18.961Z,20.15
2023-05-13T22:37:46.282Z,24.15
2023-05-13T22:40:13.899Z,23.38
2023-05-13T22:42:41.263Z,22.63
2023-05-13T22:45:09.187Z,24.05
2023-05-13T22:47:39.467Z,21.55
2023-05-13T22:50:07.472Z,27.77
2023-05-13T22:52:34.848Z,20.20
2023-05-13T22:55:02.241Z,21.13
2023-05-13T22:57:29.570Z,22.48
2023-05-13T22:59:56.952Z,21.30
2023-05-13T23:02:24.696Z,21.48
2023-05-13T23:04:52.748Z,22.58
2023-05-13T23:07:20.384Z,28.02
2023-05-13T23:09:47.704Z,23.33
2023-05-13T23:12:15.011Z,24.42
2023-05-13T23:14:42.362Z,23.73
2023-05-13T23:17:09.702Z,22.25
2023-05-13T23:19:38.200Z,22.50
2023-05-13T23:22:05.933Z,25.23
2023-05-13T23:24:33.318Z,24.00
2023-05-13T23:27:03.856Z,29.58
2023-05-13T23:29:31.279Z,21.27
2023-05-13T23:32:46.900Z,22.77
2023-05-13T23:35:19.528Z,26.30
2023-05-13T23:37:46.952Z,21.73
2023-05-13T23:40:14.351Z,23.98
2023-05-13T23:42:43.012Z,22.08
2023-05-13T23:45:10.988Z,22.88
2023-05-13T23:47:38.343Z,21.83
2023-05-13T23:50:06.430Z,23.35
2023-05-13T23:52:34.020Z,21.17
2023-05-13T23:55:02.407Z,23.60
2023-05-13T23:57:29.951Z,22.02
2023-05-13T23:59:57.397Z,23.33
